createdAt,value
2017-09-14T00:00:57.311Z,11.97
2017-09-14T00:03:23.744Z,13.03
2017-09-14T00:05:50.179Z,12.97
2017-09-14T00:08:16.612Z,13.20
2017-09-14T00:10:43.004Z,13.70
2017-09-14T00:13:10.202Z,14.30
2017-09-14T00:15:36.590Z,13.30
2017-09-14T00:18:03.019Z,14.87
2017-09-14T00:20:29.511Z,14.20
2017-09-14T00:22:55.939Z,13.37
2017-09-14T00:25:22.374Z,13.10
2017-09-14T00:27:48.759Z,12.43
2017-09-14T00:30:16.063Z,12.60
2017-09-14T00:32:42.451Z,13.20
2017-09-14T00:35:08.922Z,12.77
2017-09-14T00:37:35.368Z,12.67
2017-09-14T00:40:01.804Z,12.67
2017-09-14T00:42:28.237Z,12.87
2017-09-14T00:44:54.673Z,13.03
2017-09-14T00:47:21.824Z,13.63
2017-09-14T00:49:48.262Z,12.00
2017-09-14T00:52:14.694Z,12.27
2017-09-14T00:54:41.129Z,11.63
2017-09-14T00:57:07.564Z,12.30
2017-09-14T00:59:34.101Z,11.50
2017-09-14T01:02:00.537Z,11.80
2017-09-14T01:04:27.711Z,13.20
2017-09-14T01:06:54.125Z,11.80
2017-09-14T01:09:20.558Z,11.63
2017-09-14T01:11:46.992Z,11.17
2017-09-14T01:14:13.376Z,12.63
2017-09-14T01:16:39.847Z,11.50
2017-09-14T01:19:06.247Z,10.90
2017-09-14T01:21:33.434Z,12.40
2017-09-14T01:23:59.884Z,11.27
2017-09-14T01:26:26.267Z,13.50
2017-09-14T01:28:52.754Z,12.73
2017-09-14T01:31:19.192Z,12.43
2017-09-14T01:33:45.623Z,12.03
2017-09-14T01:36:12.008Z,14.33
2017-09-14T01:38:39.210Z,12.17
2017-09-14T01:41:05.645Z,13.00
2017-09-14T01:43:32.080Z,12.50
2017-09-14T01:45:58.515Z,12.93
2017-09-14T01:48:24.950Z,12.87
2017-09-14T01:50:51.387Z,14.10
2017-09-14T01:53:17.820Z,11.63
2017-09-14T01:55:45.074Z,12.53
2017-09-14T01:58:11.494Z,13.23
2017-09-14T02:00:37.944Z,12.60
2017-09-14T02:03:04.379Z,13.60
2017-09-14T02:05:30.836Z,13.53
2017-09-14T02:07:57.249Z,13.10
2017-09-14T02:10:23.637Z,12.37
2017-09-14T02:12:50.835Z,11.73
2017-09-14T02:15:17.269Z,11.60
2017-09-14T02:17:43.729Z,12.03
2017-09-14T02:20:10.094Z,12.20
2017-09-14T02:22:36.575Z,13.20
2017-09-14T02:25:03.010Z,11.97
2017-09-14T02:27:29.395Z,12.23
2017-09-14T02:29:56.449Z,11.47
2017-09-14T02:32:22.929Z,12.80
2017-09-14T02:34:49.363Z,12.93
2017-09-14T02:37:15.902Z,12.40
2017-09-14T02:39:42.336Z,11.30
2017-09-14T02:42:08.771Z,11.60
2017-09-14T02:44:35.206Z,12.73
2017-09-14T02:47:02.367Z,13.07
2017-09-14T02:49:28.844Z,12.23
2017-09-14T02:51:55.278Z,12.80
2017-09-14T02:54:21.752Z,12.80
2017-09-14T02:56:48.201Z,12.27
2017-09-14T02:59:14.655Z,12.93
2017-09-14T03:01:41.150Z,11.77
2017-09-14T03:04:08.268Z,12.00
2017-09-14T03:06:34.757Z,12.40
2017-09-14T03:09:01.193Z,12.70
2017-09-14T03:11:27.629Z,13.53
2017-09-14T03:13:54.063Z,12.63
2017-09-14T03:16:20.447Z,11.93
2017-09-14T03:18:46.935Z,12.90
2017-09-14T03:21:14.086Z,14.10
2017-09-14T03:23:40.469Z,12.13
2017-09-14T03:26:06.953Z,14.03
2017-09-14T03:28:33.492Z,12.50
2017-09-14T03:30:59.927Z,13.40
2017-09-14T03:33:26.361Z,12.60
2017-09-14T03:35:52.749Z,14.00
2017-09-14T03:38:19.914Z,14.00
2017-09-14T03:40:46.356Z,13.30
2017-09-14T03:43:12.820Z,13.90
2017-09-14T03:45:39.271Z,13.50
2017-09-14T03:48:05.688Z,13.20
2017-09-14T03:50:32.121Z,14.27
2017-09-14T03:52:58.558Z,12.73
2017-09-14T03:55:25.727Z,12.87
2017-09-14T03:57:52.246Z,13.03
2017-09-14T04:00:18.682Z,12.63
2017-09-14T04:02:45.116Z,12.70
2017-09-14T04:05:11.551Z,13.07
2017-09-14T04:07:37.986Z,14.00
2017-09-14T04:10:04.371Z,15.30
2017-09-14T04:12:31.675Z,14.10
2017-09-14T04:14:58.110Z,13.40
2017-09-14T04:17:24.647Z,13.50
2017-09-14T04:19:51.084Z,13.40
2017-09-14T04:22:17.517Z,13.87
2017-09-14T04:24:43.952Z,14.23
2017-09-14T04:27:10.386Z,13.70
2017-09-14T04:29:37.643Z,13.30
2017-09-14T04:32:04.077Z,12.20
2017-09-14T04:34:30.463Z,12.90
2017-09-14T04:36:57.050Z,15.00
2017-09-14T04:39:23.482Z,14.63
2017-09-14T04:41:49.920Z,14.57
2017-09-14T04:44:16.354Z,15.00
2017-09-14T04:46:43.610Z,16.07
2017-09-14T04:49:10.044Z,15.20
2017-09-14T04:51:36.423Z,16.30
2017-09-14T04:54:02.808Z,14.60
2017-09-14T04:56:29.243Z,14.83
2017-09-14T04:58:55.681Z,14.20
2017-09-14T05:01:22.114Z,14.30
2017-09-14T05:03:49.352Z,14.27
2017-09-14T05:06:15.805Z,15.17
2017-09-14T05:08:42.236Z,14.37
2017-09-14T05:11:08.654Z,14.50
2017-09-14T05:13:35.100Z,15.30
2017-09-14T05:16:01.548Z,15.00
2017-09-14T05:18:27.977Z,14.17
2017-09-14T05:20:55.129Z,14.53
2017-09-14T05:23:21.564Z,14.10
2017-09-14T05:25:47.999Z,14.13
2017-09-14T05:28:14.377Z,14.43
2017-09-14T05:30:40.873Z,13.83
2017-09-14T05:33:07.252Z,13.77
2017-09-14T05:35:33.730Z,13.87
2017-09-14T05:38:00.891Z,13.93
2017-09-14T05:40:27.327Z,14.50
2017-09-14T05:42:53.760Z,13.73
2017-09-14T05:45:20.298Z,14.10
2017-09-14T05:47:46.732Z,13.87
2017-09-14T05:50:13.167Z,14.37
2017-09-14T05:52:39.601Z,13.50
2017-09-14T05:55:05.982Z,13.93
2017-09-14T05:57:32.676Z,15.30
2017-09-14T05:59:59.035Z,15.00
2017-09-14T06:02:25.444Z,14.37
2017-09-14T06:04:52.070Z,14.60
2017-09-14T06:07:18.620Z,14.50
2017-09-14T06:09:45.077Z,13.97
2017-09-14T06:12:11.592Z,13.67
2017-09-14T06:14:38.048Z,14.70
2017-09-14T06:17:04.411Z,14.83
2017-09-14T06:19:30.973Z,14.73
2017-09-14T06:21:57.415Z,14.60
2017-09-14T06:24:24.284Z,16.40
2017-09-14T06:26:50.715Z,17.30
2017-09-14T06:29:17.150Z,17.43
2017-09-14T06:31:43.586Z,17.90
2017-09-14T06:34:10.019Z,16.60
2017-09-14T06:36:36.965Z,17.60
2017-09-14T06:39:03.350Z,15.30
2017-09-14T06:41:30.246Z,16.27
2017-09-14T06:43:56.681Z,18.50
2017-09-14T06:46:23.166Z,17.50
2017-09-14T06:48:49.635Z,13.47
2017-09-14T06:51:16.304Z,14.60
2017-09-14T06:53:42.726Z,14.17
2017-09-14T06:56:09.166Z,14.87
2017-09-14T06:58:36.443Z,17.30
2017-09-14T07:01:02.955Z,18.40
2017-09-14T07:03:29.389Z,17.70
2017-09-14T07:05:56.028Z,18.70
2017-09-14T07:08:22.527Z,19.67
2017-09-14T07:13:30.213Z,18.83
2017-09-14T07:26:02.648Z,13.60
2017-09-14T07:28:29.086Z,13.57
2017-09-14T07:30:55.520Z,14.20
2017-09-14T07:33:21.826Z,13.80
2017-09-14T07:35:48.259Z,13.13
2017-09-14T07:38:14.823Z,13.20
2017-09-14T07:40:41.359Z,13.53
2017-09-14T07:43:07.795Z,12.20
2017-09-14T07:45:34.186Z,14.30
2017-09-14T07:48:00.670Z,12.07
2017-09-14T07:50:27.121Z,12.20
2017-09-14T07:52:53.558Z,11.93
2017-09-14T07:55:20.072Z,11.40
2017-09-14T07:57:46.612Z,12.40
2017-09-14T08:00:12.944Z,12.47
2017-09-14T08:02:39.376Z,10.63
2017-09-14T08:05:06.054Z,10.60
2017-09-14T08:07:32.399Z,10.10
2017-09-14T08:09:58.889Z,9.70
2017-09-14T08:12:25.941Z,9.10
2017-09-14T08:14:52.372Z,9.27
2017-09-14T08:17:18.805Z,10.40
2017-09-14T08:19:45.240Z,8.60
2017-09-14T08:22:11.614Z,8.67
2017-09-14T08:24:38.099Z,8.37
2017-09-14T08:27:04.753Z,8.17
2017-09-14T08:29:31.185Z,8.77
2017-09-14T08:31:57.560Z,8.50
2017-09-14T08:34:24.054Z,9.90
2017-09-14T08:36:50.490Z,9.13
2017-09-14T08:39:16.924Z,7.87
2017-09-14T08:41:43.360Z,8.63
2017-09-14T08:44:09.793Z,8.17
2017-09-14T08:46:36.230Z,8.27
2017-09-14T08:49:02.869Z,8.83
2017-09-14T08:51:29.239Z,8.67
2017-09-14T08:53:56.864Z,8.97
2017-09-14T08:56:23.403Z,7.70
2017-09-14T08:58:49.939Z,8.00
2017-09-14T09:01:16.375Z,9.00
2017-09-14T09:06:14.985Z,8.53
2017-09-14T09:08:41.536Z,8.47
2017-09-14T09:11:08.074Z,7.73
2017-09-14T09:13:34.510Z,7.37
2017-09-14T09:16:01.047Z,8.10
2017-09-14T09:18:27.426Z,7.67
2017-09-14T09:20:53.914Z,8.10
2017-09-14T09:23:20.348Z,10.53
2017-09-14T09:25:46.897Z,7.70
2017-09-14T09:28:13.628Z,8.57
2017-09-14T09:30:40.083Z,7.63
2017-09-14T09:33:06.909Z,7.13
2017-09-14T09:35:33.751Z,7.00
2017-09-14T09:38:00.195Z,6.87
2017-09-14T09:40:26.934Z,7.10
2017-09-14T09:42:53.574Z,7.80
2017-09-14T09:45:20.105Z,7.67
2017-09-14T09:47:46.490Z,7.33
2017-09-14T09:50:12.955Z,6.93
2017-09-14T09:52:39.410Z,7.80
2017-09-14T09:55:05.845Z,7.40
2017-09-14T09:57:32.279Z,8.50
2017-09-14T09:59:58.631Z,7.40
2017-09-14T10:02:25.048Z,7.90
2017-09-14T10:04:51.482Z,8.23
2017-09-14T10:07:17.917Z,8.23
2017-09-14T10:09:44.351Z,7.47
2017-09-14T10:12:10.787Z,7.07
2017-09-14T10:14:37.426Z,7.20
2017-09-14T10:17:03.812Z,6.80
2017-09-14T10:19:30.297Z,7.47
2017-09-14T10:21:56.733Z,7.60
2017-09-14T10:24:23.167Z,6.73
2017-09-14T10:26:49.706Z,6.70
2017-09-14T10:29:16.342Z,8.10
2017-09-14T10:31:42.925Z,7.00
2017-09-14T10:34:09.279Z,7.60
2017-09-14T10:36:35.646Z,7.60
2017-09-14T10:39:02.389Z,7.27
2017-09-14T10:41:28.928Z,8.60
2017-09-14T10:43:55.367Z,7.70
2017-09-14T10:46:22.308Z,6.50
2017-09-14T10:48:48.744Z,7.07
2017-09-14T10:51:15.179Z,7.40
2017-09-14T10:53:41.614Z,7.23
2017-09-14T10:56:08.150Z,6.90
2017-09-14T10:58:34.530Z,7.10
2017-09-14T11:01:01.118Z,6.50
2017-09-14T11:03:27.581Z,7.50
2017-09-14T11:05:54.299Z,7.33
2017-09-14T11:08:20.882Z,6.63
2017-09-14T11:10:48.229Z,7.10
2017-09-14T11:15:46.670Z,6.30
2017-09-14T11:18:13.144Z,6.73
2017-09-14T11:20:39.677Z,6.17
2017-09-14T11:23:06.590Z,6.27
2017-09-14T11:25:33.331Z,5.83
2017-09-14T11:27:59.755Z,6.67
2017-09-14T11:30:26.225Z,5.27
2017-09-14T11:32:53.762Z,5.20
2017-09-14T11:35:20.242Z,5.30
2017-09-14T11:37:46.840Z,5.43
2017-09-14T11:40:13.477Z,4.23
2017-09-14T11:42:39.924Z,4.53
2017-09-14T11:45:06.450Z,4.77
2017-09-14T11:47:32.986Z,4.77
2017-09-14T11:49:59.525Z,4.57
2017-09-14T11:52:26.070Z,4.40
2017-09-14T11:54:52.702Z,5.00
2017-09-14T11:57:19.240Z,4.20
2017-09-14T11:59:45.879Z,3.90
2017-09-14T12:02:12.415Z,4.03
2017-09-14T12:04:38.748Z,5.27
2017-09-14T12:07:05.182Z,4.30
2017-09-14T12:09:32.152Z,4.40
2017-09-14T12:11:58.618Z,4.60
2017-09-14T12:14:25.036Z,4.20
2017-09-14T12:16:51.536Z,4.00
2017-09-14T12:19:17.979Z,4.00
2017-09-14T12:21:44.453Z,4.60
2017-09-14T12:24:11.046Z,4.10
2017-09-14T12:26:37.434Z,3.33
2017-09-14T12:29:04.021Z,3.43
2017-09-14T12:31:30.763Z,3.50
2017-09-14T12:33:57.646Z,3.80
2017-09-14T12:36:24.039Z,3.30
2017-09-14T12:38:50.487Z,3.40
2017-09-14T12:41:17.014Z,3.70
2017-09-14T12:43:43.864Z,3.53
2017-09-14T12:46:10.600Z,3.37
2017-09-14T12:48:38.546Z,3.03
2017-09-14T12:51:05.075Z,3.50
2017-09-14T12:53:31.478Z,3.33
2017-09-14T12:55:58.489Z,4.28
2017-09-14T12:58:25.131Z,3.40
2017-09-14T13:00:51.608Z,3.30
2017-09-14T13:03:18.320Z,3.37
2017-09-14T13:05:45.153Z,3.13
2017-09-14T13:08:13.231Z,3.20
2017-09-14T13:10:39.697Z,3.13
2017-09-14T13:13:06.027Z,3.50
2017-09-14T13:15:32.608Z,3.43
2017-09-14T13:17:59.607Z,3.00
2017-09-14T13:20:26.013Z,3.20
2017-09-14T13:22:52.672Z,3.37
2017-09-14T13:25:19.142Z,3.10
2017-09-14T13:27:45.561Z,2.90
2017-09-14T13:42:49.621Z,2.90
2017-09-14T13:55:21.922Z,3.10
2017-09-14T13:57:48.357Z,3.50
2017-09-14T14:00:14.816Z,3.20
2017-09-14T14:02:41.943Z,3.10
2017-09-14T14:05:08.322Z,3.80
2017-09-14T14:07:35.634Z,3.23
2017-09-14T14:10:02.171Z,3.40
2017-09-14T14:12:28.605Z,3.50
2017-09-14T14:14:55.040Z,3.43
2017-09-14T14:17:21.393Z,3.10
2017-09-14T14:19:47.806Z,3.60
2017-09-14T14:22:14.246Z,3.77
2017-09-14T14:24:40.676Z,3.90
2017-09-14T14:29:39.998Z,4.67
2017-09-14T14:32:06.536Z,4.70
2017-09-14T14:34:33.195Z,5.20
2017-09-14T14:36:59.588Z,5.53
2017-09-14T14:39:26.091Z,5.73
2017-09-14T14:41:52.710Z,5.77
2017-09-14T14:44:19.292Z,5.80
2017-09-14T14:46:45.657Z,5.90
2017-09-14T14:49:12.102Z,6.00
2017-09-14T14:51:38.594Z,6.33
2017-09-14T14:54:05.385Z,5.77
2017-09-14T14:56:32.386Z,6.37
2017-09-14T14:58:58.958Z,6.70
2017-09-14T15:01:25.394Z,6.17
2017-09-14T15:03:51.931Z,6.30
2017-09-14T15:06:18.468Z,6.30
2017-09-14T15:08:44.902Z,6.13
2017-09-14T15:11:11.294Z,6.67
2017-09-14T15:13:37.772Z,6.77
2017-09-14T15:16:04.150Z,6.97
2017-09-14T15:18:30.642Z,6.67
2017-09-14T15:20:57.077Z,6.13
2017-09-14T15:23:23.615Z,6.57
2017-09-14T15:25:50.152Z,6.20
2017-09-14T15:28:17.303Z,6.07
2017-09-14T15:30:43.785Z,6.30
2017-09-14T15:33:10.256Z,6.33
2017-09-14T15:35:36.758Z,6.70
2017-09-14T15:38:03.241Z,6.10
2017-09-14T15:40:29.662Z,6.70
2017-09-14T15:42:56.117Z,6.60
2017-09-14T15:45:23.214Z,6.00
2017-09-14T15:47:49.602Z,6.30
2017-09-14T15:50:16.139Z,6.60
2017-09-14T15:52:42.678Z,6.60
2017-09-14T15:55:09.111Z,6.50
2017-09-14T15:57:35.548Z,7.13
2017-09-14T16:00:01.981Z,7.43
2017-09-14T16:02:29.236Z,7.50
2017-09-14T16:04:55.670Z,7.17
2017-09-14T16:07:22.106Z,7.33
2017-09-14T16:09:48.486Z,7.07
2017-09-14T16:12:14.923Z,7.70
2017-09-14T16:14:41.391Z,7.53
2017-09-14T16:17:07.844Z,6.87
2017-09-14T16:19:34.996Z,7.20
2017-09-14T16:22:01.436Z,7.40
2017-09-14T16:24:27.968Z,7.33
2017-09-14T16:26:54.402Z,7.30
2017-09-14T16:29:20.791Z,7.90
2017-09-14T16:31:47.134Z,7.03
2017-09-14T16:34:13.608Z,7.90
2017-09-14T16:36:40.758Z,7.50
2017-09-14T16:39:07.295Z,7.47
2017-09-14T16:41:33.711Z,7.50
2017-09-14T16:44:00.143Z,7.60
2017-09-14T16:46:26.601Z,7.47
2017-09-14T16:48:53.036Z,7.70
2017-09-14T16:51:19.414Z,7.90
2017-09-14T16:53:46.621Z,8.10
2017-09-14T16:56:13.055Z,8.10
2017-09-14T16:58:39.490Z,8.30
2017-09-14T17:01:05.928Z,7.83
2017-09-14T17:03:32.566Z,7.97
2017-09-14T17:05:58.999Z,8.40
2017-09-14T17:08:25.434Z,8.60
2017-09-14T17:10:52.484Z,8.20
2017-09-14T17:13:19.022Z,8.67
2017-09-14T17:15:45.475Z,8.00
2017-09-14T17:18:11.892Z,8.77
2017-09-14T17:20:38.327Z,8.10
2017-09-14T17:23:04.816Z,8.43
2017-09-14T17:25:31.196Z,8.90
2017-09-14T17:27:58.451Z,9.00
2017-09-14T17:30:24.886Z,8.90
2017-09-14T17:32:51.421Z,9.83
2017-09-14T17:35:17.861Z,10.70
2017-09-14T17:37:44.293Z,10.00
2017-09-14T17:40:10.790Z,9.30
2017-09-14T17:42:37.265Z,9.37
2017-09-14T17:45:04.416Z,9.43
2017-09-14T17:47:30.787Z,9.70
2017-09-14T17:49:57.145Z,9.93
2017-09-14T17:52:23.572Z,9.37
2017-09-14T17:54:50.053Z,9.80
2017-09-14T17:57:16.488Z,9.70
2017-09-14T17:59:42.923Z,9.33
2017-09-14T18:02:10.094Z,10.43
2017-09-14T18:04:36.598Z,10.63
2017-09-14T18:07:03.048Z,10.23
2017-09-14T18:09:29.404Z,10.90
2017-09-14T18:11:55.815Z,10.60
2017-09-14T18:14:22.398Z,10.40
2017-09-14T18:16:48.787Z,9.90
2017-09-14T18:19:15.928Z,10.67
2017-09-14T18:21:42.374Z,10.47
2017-09-14T18:24:08.911Z,11.17
2017-09-14T18:26:35.346Z,10.60
2017-09-14T18:29:01.782Z,9.70
2017-09-14T18:31:28.218Z,9.73
2017-09-14T18:33:54.709Z,11.50
2017-09-14T18:36:21.774Z,10.60
2017-09-14T18:38:48.221Z,11.50
2017-09-14T18:41:14.674Z,10.47
2017-09-14T18:43:41.209Z,10.70
2017-09-14T18:46:07.644Z,10.70
2017-09-14T18:48:34.079Z,10.43
2017-09-14T18:51:00.517Z,10.50
2017-09-14T18:53:27.666Z,10.70
2017-09-14T18:55:54.051Z,11.00
2017-09-14T18:58:20.536Z,11.13
2017-09-14T19:00:46.971Z,10.47
2017-09-14T19:03:13.407Z,11.53
2017-09-14T19:05:39.840Z,12.70
2017-09-14T19:08:06.262Z,11.83
2017-09-14T19:10:33.429Z,11.63
2017-09-14T19:12:59.966Z,11.83
2017-09-14T19:15:26.341Z,10.90
2017-09-14T19:17:52.787Z,11.57
2017-09-14T19:20:19.166Z,11.10
2017-09-14T19:22:45.704Z,11.47
2017-09-14T19:25:12.142Z,11.63
2017-09-14T19:27:39.380Z,12.40
2017-09-14T19:30:05.830Z,11.47
2017-09-14T19:32:32.264Z,11.00
2017-09-14T19:34:58.651Z,11.90
2017-09-14T19:37:25.099Z,12.27
2017-09-14T19:39:51.465Z,12.43
2017-09-14T19:42:17.886Z,12.37
2017-09-14T19:44:45.260Z,12.70
2017-09-14T19:47:11.691Z,11.90
2017-09-14T19:49:38.125Z,12.73
2017-09-14T19:52:04.561Z,12.30
2017-09-14T19:54:31.051Z,11.70
2017-09-14T19:56:57.449Z,12.27
2017-09-14T19:59:23.866Z,11.07
2017-09-14T20:01:51.121Z,10.83
2017-09-14T20:04:17.648Z,10.50
2017-09-14T20:06:44.048Z,11.33
2017-09-14T20:09:10.526Z,11.27
2017-09-14T20:11:36.961Z,12.50
2017-09-14T20:14:03.397Z,12.20
2017-09-14T20:16:29.857Z,12.20
2017-09-14T20:18:56.983Z,10.63
2017-09-14T20:21:23.420Z,11.17
2017-09-14T20:23:49.921Z,11.33
2017-09-14T20:26:16.393Z,10.90
2017-09-14T20:28:42.775Z,12.07
2017-09-14T20:31:09.157Z,12.47
2017-09-14T20:33:35.696Z,10.53
2017-09-14T20:36:02.799Z,11.90
2017-09-14T20:38:29.282Z,12.37
2017-09-14T20:40:55.716Z,12.63
2017-09-14T20:43:22.253Z,12.93
2017-09-14T20:45:48.700Z,15.13
2017-09-14T20:48:15.226Z,13.80
2017-09-14T20:50:41.660Z,13.20
2017-09-14T20:53:08.916Z,13.67
2017-09-14T20:55:35.453Z,13.30
2017-09-14T20:58:02.031Z,15.10
2017-09-14T21:00:28.527Z,14.87
2017-09-14T21:02:55.047Z,14.93
2017-09-14T21:05:21.499Z,13.37
2017-09-14T21:07:47.934Z,14.40
2017-09-14T21:10:15.025Z,14.70
2017-09-14T21:12:41.521Z,13.90
2017-09-14T21:15:07.956Z,14.33
2017-09-14T21:17:34.409Z,14.33
2017-09-14T21:20:00.928Z,14.60
2017-09-14T21:22:27.362Z,14.17
2017-09-14T21:24:53.751Z,13.97
2017-09-14T21:27:20.949Z,14.37
2017-09-14T21:29:47.384Z,13.23
2017-09-14T21:32:13.820Z,13.13
2017-09-14T21:34:40.354Z,12.53
2017-09-14T21:37:06.747Z,12.07
2017-09-14T21:39:33.213Z,12.03
2017-09-14T21:41:59.657Z,11.33
2017-09-14T21:44:26.765Z,11.70
2017-09-14T21:46:53.242Z,12.00
2017-09-14T21:49:19.634Z,12.10
2017-09-14T21:51:46.102Z,12.20
2017-09-14T21:54:12.656Z,11.10
2017-09-14T21:56:39.038Z,11.40
2017-09-14T21:59:05.422Z,11.73
2017-09-14T22:01:32.727Z,11.40
2017-09-14T22:03:59.214Z,10.90
2017-09-14T22:06:25.633Z,11.20
2017-09-14T22:08:52.076Z,11.80
2017-09-14T22:11:18.522Z,11.30
2017-09-14T22:13:45.061Z,11.50
2017-09-14T22:16:11.495Z,11.13
2017-09-14T22:18:38.746Z,10.67
2017-09-14T22:21:05.179Z,11.60
2017-09-14T22:23:31.717Z,10.87
2017-09-14T22:25:58.152Z,11.20
2017-09-14T22:28:24.690Z,11.00
2017-09-14T22:30:51.123Z,11.30
2017-09-14T22:33:18.686Z,11.30
2017-09-14T22:35:45.223Z,11.30
2017-09-14T22:38:11.658Z,10.97
2017-09-14T22:40:38.092Z,10.30
2017-09-14T22:43:04.631Z,11.67
2017-09-14T22:45:31.070Z,11.50
2017-09-14T22:47:57.500Z,10.50
2017-09-14T22:50:23.935Z,10.77
2017-09-14T22:52:51.188Z,9.60
2017-09-14T22:55:17.625Z,10.30
2017-09-14T22:57:44.006Z,10.33
2017-09-14T23:00:10.495Z,10.40
2017-09-14T23:02:37.030Z,9.30
2017-09-14T23:05:03.461Z,9.93
2017-09-14T23:07:29.870Z,10.57
2017-09-14T23:09:57.053Z,9.93
2017-09-14T23:12:23.487Z,10.30
2017-09-14T23:14:49.923Z,10.03
2017-09-14T23:17:16.301Z,10.10
2017-09-14T23:19:42.738Z,10.50
2017-09-14T23:22:09.227Z,9.60
2017-09-14T23:24:35.765Z,9.73
2017-09-14T23:27:02.936Z,9.73
2017-09-14T23:29:29.453Z,9.73
2017-09-14T23:31:55.887Z,10.43
2017-09-14T23:34:22.423Z,10.10
2017-09-14T23:36:48.816Z,10.80
2017-09-14T23:39:15.284Z,10.93
2017-09-14T23:41:41.730Z,10.70
2017-09-14T23:44:08.984Z,11.70
2017-09-14T23:46:35.418Z,11.60
2017-09-14T23:49:01.855Z,10.77
2017-09-14T23:51:28.310Z,11.23
2017-09-14T23:53:54.775Z,11.90
2017-09-14T23:56:21.232Z,12.40
2017-09-14T23:58:47.643Z,13.57
